Station: Lochington  

  Atmospheric Gas Attenuation - ITU Rec 676-11   ----------------- dB/100km -----------------
Date Time Temp RH % AH g/m3 Dew Point Wind Direction Speed kph Gust kph Barometer mB Rainfall Since 9am 24GHz 47GHz 76GHz 122GHz 134GHz 241GHz
08/05 12:30 20.5 24 4.27 -0.7 7 11 1020.6 0 10.2 18.3 22.2 57.5 42.5 142.8
08/05 12:20 19.7 23 3.91 -2 6 7 1020.7 0 9.5 18.0 21.3 55.1 39.2 131.1
08/05 12:10 19.5 24 4.03 -1.6 7 9 1020.8 0 9.7 18.2 21.8 56.2 40.5 135.8
08/05 12:00 19.2 26 4.29 -0.7 7 13 1020.8 0 10.3 18.6 22.7 58.6 43.4 145.8
08/05 11:50 19.2 26 4.29 -0.8 4 4 1021.1 0 10.3 18.6 22.7 58.6 43.4 145.8
08/05 11:40 18.9 27 4.37 -0.5 7 13 1021.3 0 10.5 18.8 23.0 59.5 44.4 149.3
08/05 11:30 18.8 27 4.35 -0.6 7 19 1021.6 0 10.4 18.8 23.0 59.4 44.2 148.8
08/05 11:20 18.3 28 4.38 -0.5 9 13 1021.7 0 10.5 18.9 23.2 60.1 44.8 150.8
08/05 11:10 18.4 29 4.56 0 11 13 1021.8 0 10.9 19.2 23.8 61.5 46.7 157.4
08/05 11:00 17.8 30 4.55 0 7 13 1022 0 10.9 19.3 23.9 61.9 46.9 158.2
08/05 10:50 18.1 29 4.48 -0.2 6 7 1022.4 0 10.7 19.1 23.6 61.1 46.0 155.1
08/05 10:40 17.1 31 4.51 -0.2 6 9 1022.5 0 10.8 19.4 24.0 62.1 46.9 158.1
08/05 10:30 17.1 30 4.37 -0.6 6 7 1022.5 0 10.5 19.2 23.5 60.9 45.4 152.8
08/05 10:20 17.1 32 4.66 0.3 7 13 1022.5 0 11.1 19.6 24.5 63.4 48.5 163.8
08/05 10:10 17.4 32 4.74 0.5 9 15 1022.8 0 11.3 19.6 24.7 63.9 49.3 166.3
08/05 10:00 16 35 4.77 0.6 7 15 1023 0 11.4 20.0 25.2 65.3 50.4 170.4
08/05 09:50 15.5 36 4.76 0.5 11 13 1022.8 0 11.4 20.1 25.3 65.6 50.6 171.0
08/05 09:40 15.3 37 4.83 0.7 11 15 1022.9 0 11.5 20.2 25.6 66.4 51.6 174.2
08/05 09:30 15.5 40 5.29 2 11 19 1022.9 0 12.5 20.8 27.1 70.5 56.6 192.1
08/05 09:20 15 42 5.39 2.2 15 19 1023.1 0 12.7 21.1 27.7 71.9 58.2 197.4
08/05 09:10 14.6 45 5.63 2.8 17 19 1022.8 0 13.2 21.5 28.6 74.5 61.2 208.1
08/05 09:00 14.1 49 5.95 3.6 11 17 1022.9 0 13.9 22.1 29.9 78.0 65.4 222.8
08/05 08:50 13.9 50 5.99 3.6 13 17 1022.9 0 14.0 22.2 30.2 78.6 66.1 225.0
08/05 08:40 13.8 52 6.2 4.1 11 13 1022.8 0 14.5 22.5 31.0 80.7 68.7 234.2
08/05 08:30 13.4 53 6.16 4 11 15 1022.6 0 14.4 22.5 31.0 80.7 68.5 233.6
08/05 08:20 13.5 56 6.55 4.9 7 11 1022.3 0 15.2 23.1 32.4 84.5 73.2 250.0
08/05 08:10 13.4 60 6.98 5.8 4 4 1022.2 0 16.1 23.8 34.0 88.9 78.6 269.1
08/05 08:00 12 70 7.46 6.7 0 0 1022.2 0 17.2 24.9 36.5 95.5 86.3 295.6
08/05 07:50 11.6 72 7.48 6.7 0 0 1022.1 0 17.3 25.0 36.8 96.2 87.0 298.0
08/05 07:40 10.7 76 7.47 6.6 0 0 1022 0 17.3 25.3 37.1 97.2 87.8 301.0
08/05 07:30 10.1 77 7.28 6.3 0 0 1021.8 0 16.9 25.1 36.6 95.8 86.0 294.3
08/05 07:20 10.5 74 7.18 6 0 0 1021.7 0 16.7 24.9 36.0 94.3 84.2 288.2
08/05 07:10 10.4 75 7.23 6.1 0 0 1021.6 0 16.8 25.0 36.3 94.9 85.0 290.8
08/05 07:00 10.7 71 6.98 5.7 0 0 1021.4 0 16.3 24.5 35.2 91.9 81.3 278.2
08/05 06:50 10 72 6.77 5.2 0 0 1021.3 0 15.8 24.3 34.6 90.5 79.3 271.0
08/05 06:40 10.1 70 6.62 5 0 0 1021.1 0 15.5 24.0 34.0 88.8 77.2 263.8
08/05 06:30 10.2 72 6.85 5.4 0 2 1021 0 16.0 24.4 34.8 91.1 80.1 273.9
08/05 06:20 9.9 72 6.72 5.1 2 2 1020.7 0 15.7 24.2 34.4 90.0 78.7 268.9
08/05 06:10 9.9 72 6.72 5.1 0 0 1020.7 0 15.7 24.2 34.4 90.0 78.7 268.9
08/05 06:00 10 71 6.67 5 2 6 1020.3 0 15.6 24.1 34.2 89.3 77.9 266.2
08/05 05:50 10.2 70 6.66 5.1 0 2 1020.2 0 15.6 24.0 34.1 89.0 77.6 265.1
08/05 05:40 10.1 70 6.62 5 4 6 1020.2 0 15.5 24.0 33.9 88.7 77.2 263.6
08/05 05:30 10.5 69 6.69 5.1 2 4 1020.1 0 15.6 24.0 34.0 88.9 77.7 265.4
08/05 05:20 10.2 70 6.66 5.1 2 4 1019.9 0 15.6 24.0 34.0 88.9 77.6 265.0
08/05 05:10 10.1 69 6.53 4.8 4 6 1019.9 0 15.3 23.9 33.6 87.7 76.0 259.5
08/05 05:00 10.7 68 6.68 5 4 4 1019.8 0 15.6 23.9 33.9 88.6 77.3 264.2
08/05 04:50 10.9 68 6.77 5.2 2 4 1019.7 0 15.8 24.0 34.2 89.3 78.3 267.6
08/05 04:40 11 67 6.71 5.1 4 6 1019.5 0 15.7 23.9 33.9 88.5 77.4 264.5
08/05 04:30 11.1 67 6.75 5.2 2 6 1019.3 0 15.8 23.9 34.0 88.8 77.8 265.9
08/05 04:20 11.5 65 6.71 5.3 4 4 1019.3 0 15.7 23.8 33.7 88.0 76.9 262.8
08/05 04:10 11.3 67 6.84 5.4 6 6 1019.3 0 15.9 24.0 34.3 89.5 78.8 269.3
08/05 04:00 11.4 66 6.78 5.3 2 4 1019.1 0 15.8 23.9 34.0 88.8 77.9 266.2
08/05 03:50 11.6 65 6.76 5.2 0 2 1019.1 0 15.8 23.8 33.8 88.3 77.4 264.7
08/05 03:40 11.6 65 6.76 5.2 2 2 1019.2 0 15.8 23.8 33.8 88.4 77.4 264.7
08/05 03:30 12 64 6.82 5.4 4 6 1019.1 0 15.9 23.8 33.9 88.5 77.8 266.0
08/05 03:20 12.1 64 6.86 5.5 4 4 1019 0 15.9 23.8 34.0 88.8 78.2 267.4
08/05 03:10 12.2 64 6.91 5.6 6 7 1019 0 16.1 23.9 34.1 89.2 78.7 269.3
08/05 03:00 12.1 65 6.97 5.7 4 7 1019 0 16.2 24.0 34.4 89.9 79.6 272.4
08/05 02:50 12.4 63 6.88 5.7 4 4 1018.9 0 16.0 23.8 33.9 88.7 78.2 267.3
08/05 02:40 12.6 63 6.97 5.7 2 4 1019 0 16.2 23.9 34.2 89.4 79.1 270.6
08/05 02:30 12.8 63 7.06 5.9 4 7 1019.1 0 16.3 23.9 34.5 90.1 80.0 274.0
08/05 02:20 13 63 7.15 6.1 6 6 1019 0 16.5 24.0 34.7 90.8 81.0 277.3
08/05 02:10 13.1 63 7.19 6.2 4 6 1019.1 0 16.6 24.1 34.8 91.1 81.4 278.7
08/05 02:00 13.5 63 7.37 6.6 6 9 1019.2 0 17.0 24.2 35.4 92.5 83.3 285.4
08/05 01:50 13.2 64 7.35 6.7 6 7 1019.2 0 16.9 24.3 35.4 92.6 83.3 285.5
08/05 01:40 12.8 67 7.51 6.8 4 4 1019 0 17.3 24.6 36.2 94.8 85.8 294.1
08/05 01:30 13.1 66 7.53 6.9 4 6 1019.2 0 17.3 24.6 36.2 94.6 85.7 294.0
08/05 01:20 13.5 65 7.6 7 4 4 1019.1 0 17.5 24.6 36.2 94.9 86.2 295.6
08/05 01:10 13.8 65 7.74 7.3 4 4 1019.1 0 17.7 24.7 36.6 96.0 87.7 300.8
08/05 01:00 14 64 7.72 7.3 4 7 1019.1 0 17.7 24.7 36.5 95.5 87.2 299.1
08/05 00:50 13.8 65 7.74 7.3 4 6 1019 0 17.7 24.7 36.6 95.9 87.6 300.8
08/05 00:40 13.8 65 7.74 7.5 4 6 1019.1 0 17.7 24.7 36.6 96.0 87.7 300.8
08/05 00:30 13.9 66 7.91 7.7 2 4 1019 0 18.1 25.0 37.3 97.6 89.7 308.1
08/05 00:20 14.4 66 8.16 8.1 4 4 1018.9 0 18.6 25.2 38.0 99.6 92.4 317.4
08/05 00:10 14.5 65 8.08 8 2 2 1018.9 0 18.4 25.1 37.6 98.6 91.2 313.4
08/05 00:00 14.8 65 8.23 8.3 4 7 1018.8 0 18.7 25.2 38.1 99.8 92.8 318.9
07/05 23:50 14.9 64 8.16 8.1 4 6 1019 0 18.6 25.1 37.8 99.0 91.8 315.4
07/05 23:40 15.1 64 8.26 8.3 2 4 1018.9 0 18.8 25.2 38.1 99.8 92.8 319.1
07/05 23:30 15.2 63 8.18 8.2 4 7 1018.9 0 18.6 25.0 37.7 98.8 91.7 315.1
07/05 23:20 15.6 62 8.25 8.5 6 7 1019.1 0 18.8 25.0 37.8 99.0 92.1 316.7
07/05 23:10 15.9 61 8.26 8.4 4 6 1019 0 18.8 25.0 37.7 98.8 91.9 315.9
07/05 23:00 16.4 60 8.37 8.6 6 11 1019.1 0 19.0 25.0 37.9 99.3 92.7 318.8
07/05 22:50 16.7 60 8.53 8.9 6 7 1019.1 0 19.3 25.2 38.4 100.6 94.4 324.7
07/05 22:40 16.8 60 8.58 9 7 11 1019.2 0 19.4 25.2 38.5 101.0 94.9 326.6
07/05 22:30 17.1 60 8.73 9.3 9 17 1019.3 0 19.7 25.4 38.9 102.1 96.5 332.0
07/05 22:20 16.9 64 9.2 10 6 7 1019.3 0 20.7 26.2 40.9 107.3 102.8 354.1
07/05 22:10 16.6 67 9.46 10.4 6 6 1019.1 0 21.3 26.7 42.1 110.5 106.5 367.3
07/05 22:00 16 73 9.95 11.2 4 9 1019.2 0 22.3 27.7 44.4 116.6 113.9 393.1
07/05 21:50 16.2 72 9.93 11.1 4 4 1019.4 0 22.3 27.6 44.2 116.1 113.4 391.2
07/05 21:40 16.6 72 10.17 11.5 0 0 1019.3 0 22.8 27.8 45.0 118.2 116.0 400.4
07/05 21:30 16.8 72 10.29 11.7 0 0 1019.3 0 23.0 28.0 45.3 119.2 117.3 405.1
07/05 21:20 16.9 72 10.36 11.8 0 0 1019.2 0 23.2 28.1 45.6 119.8 118.1 407.8
07/05 21:10 16.9 72 10.36 11.8 6 6 1019.2 0 23.2 28.1 45.6 119.8 118.1 407.8
07/05 21:00 17.8 70 10.62 12.3 6 9 1019.1 0 23.7 28.2 46.1 121.2 120.2 415.3
07/05 20:50 18.1 68 10.51 12.1 7 7 1019 0 23.4 27.9 45.5 119.6 118.3 408.5
07/05 20:40 17.5 73 10.88 12.6 6 9 1018.8 0 24.2 28.7 47.3 124.5 124.2 429.1
07/05 20:30 17.5 72 10.73 12.4 4 6 1018.8 0 23.9 28.5 46.7 122.9 122.2 422.0
07/05 20:20 17.7 72 10.86 12.6 4 6 1018.7 0 24.2 28.6 47.1 124.0 123.6 427.1
07/05 20:10 18.1 70 10.81 12.5 6 6 1018.6 0 24.1 28.4 46.7 122.8 122.3 422.5
07/05 20:00 18.5 69 10.92 12.7 4 6 1018.4 0 24.3 28.4 46.9 123.3 123.1 425.4

Last Refresh: 08-May-2026 12:08:01

Bureau of Meteorology